Accueil
METAR-TAF:

METAR-TAF

Aéroports :

Shawbury, Angleterre

latitude: 52-48N, longitude: 002-40W, altitude: 76 m

Observation

Le bulletin a été fait il y a 46 minutes, à 20:50 UTC
Vent 5 kt de nord/nord-ouest
Température 10°C
Humidité 82%
Pression 1032 hPa
Visibilité 10 km ou plus

METAR: EGOS 212050Z AUTO 34005KT 9999 FEW029/// BKN037/// BKN240/// 10/07 Q1032

Heure: 22:36 (21:36 UTC)


TAF: absent

Observations et prévisions météorologiques de plus de 4000 aéroports (messages METAR et TAF).

Les stations disponibles sont représentées par des disques jaunes et rouges sur la carte.

Passer la souris dessus pour voir le nom de la station.

Cliquer dessus pour voir les observations et prévisions météorologiques.

Pour changer de carte: cliquez sur les boutons verts avec une croix noire pour zoomer, sur le bouton vert avec un tiret pour effectuer un zoom arrière, ou sur les flèches vertes pour les cartes adjacentes.


METAR-TAF: